createdAt,value
2018-07-13T00:01:54.987Z,17.80
2018-07-13T00:04:22.752Z,17.00
2018-07-13T00:06:50.731Z,22.00
2018-07-13T00:09:19.083Z,20.60
2018-07-13T00:11:46.825Z,21.80
2018-07-13T00:14:15.716Z,21.40
2018-07-13T00:16:44.102Z,20.40
2018-07-13T00:19:12.526Z,19.20
2018-07-13T00:21:40.246Z,25.40
2018-07-13T00:24:08.957Z,20.00
2018-07-13T00:26:37.610Z,19.80
2018-07-13T00:29:06.974Z,22.20
2018-07-13T00:31:35.968Z,24.00
2018-07-13T00:34:04.019Z,17.40
2018-07-13T00:36:31.887Z,27.20
2018-07-13T00:38:59.877Z,22.40
2018-07-13T00:41:27.601Z,22.40
2018-07-13T00:43:56.040Z,22.00
2018-07-13T00:46:23.939Z,23.40
2018-07-13T00:48:51.694Z,21.20
2018-07-13T00:51:20.020Z,17.00
2018-07-13T00:53:48.031Z,19.60
2018-07-13T00:56:15.771Z,20.40
2018-07-13T00:58:43.545Z,30.60
2018-07-13T01:01:12.983Z,19.80
2018-07-13T01:03:40.713Z,20.80
2018-07-13T01:06:08.441Z,25.00
2018-07-13T01:08:36.461Z,23.20
2018-07-13T01:11:04.229Z,21.00
2018-07-13T01:13:31.969Z,20.80
2018-07-13T01:15:59.702Z,23.40
2018-07-13T01:18:27.772Z,18.60
2018-07-13T01:20:55.486Z,18.60
2018-07-13T01:23:23.202Z,25.00
2018-07-13T01:25:50.947Z,21.40
2018-07-13T01:28:19.022Z,28.20
2018-07-13T01:30:46.755Z,18.40
2018-07-13T01:33:14.499Z,24.40
2018-07-13T01:35:42.223Z,24.80
2018-07-13T01:38:11.086Z,22.40
2018-07-13T01:40:38.838Z,22.80
2018-07-13T01:43:07.183Z,24.20
2018-07-13T01:45:35.731Z,21.60
2018-07-13T01:48:03.809Z,23.20
2018-07-13T01:50:31.573Z,22.20
2018-07-13T01:52:59.374Z,22.60
2018-07-13T01:55:27.127Z,24.00
2018-07-13T01:57:55.283Z,23.20
2018-07-13T02:00:23.027Z,24.80
2018-07-13T02:02:50.771Z,28.20
2018-07-13T02:05:18.515Z,26.60
2018-07-13T02:07:46.773Z,26.80
2018-07-13T02:10:14.519Z,26.40
2018-07-13T02:12:42.270Z,22.80
2018-07-13T02:15:10.020Z,25.60
2018-07-13T02:17:38.230Z,29.00
2018-07-13T02:20:05.974Z,32.20
2018-07-13T02:22:33.711Z,28.80
2018-07-13T02:25:01.815Z,26.20
2018-07-13T02:27:29.569Z,31.00
2018-07-13T02:29:57.286Z,28.80
2018-07-13T02:32:25.415Z,26.20
2018-07-13T02:34:53.210Z,35.20
2018-07-13T02:37:21.044Z,27.40
2018-07-13T02:39:48.774Z,24.00
2018-07-13T02:42:16.886Z,28.40
2018-07-13T02:44:44.635Z,22.40
2018-07-13T02:47:12.388Z,27.40
2018-07-13T02:49:40.136Z,33.00
2018-07-13T02:52:08.174Z,24.40
2018-07-13T02:54:35.898Z,29.40
2018-07-13T02:57:03.640Z,38.40
2018-07-13T02:59:31.383Z,33.00
2018-07-13T03:01:59.397Z,33.00
2018-07-13T03:04:27.158Z,30.20
2018-07-13T03:06:55.692Z,34.00
2018-07-13T03:09:23.423Z,28.20
2018-07-13T03:11:51.455Z,27.60
2018-07-13T03:14:19.187Z,29.80
2018-07-13T03:16:46.937Z,27.00
2018-07-13T03:19:14.670Z,20.20
2018-07-13T03:21:42.673Z,36.00
2018-07-13T03:24:10.429Z,31.80
2018-07-13T03:26:38.764Z,34.60
2018-07-13T03:29:06.480Z,33.60
2018-07-13T03:31:34.515Z,25.80
2018-07-13T03:34:02.239Z,26.60
2018-07-13T03:36:29.964Z,27.20
2018-07-13T03:38:58.007Z,26.80
2018-07-13T03:41:26.049Z,31.80
2018-07-13T03:43:53.783Z,29.40
2018-07-13T03:46:21.525Z,32.00
2018-07-13T03:48:49.245Z,26.20
2018-07-13T03:51:17.263Z,23.40
2018-07-13T03:53:45.000Z,28.20
2018-07-13T03:56:12.793Z,25.40
2018-07-13T03:58:40.541Z,25.40
2018-07-13T04:01:08.570Z,31.60
2018-07-13T04:03:36.338Z,24.00
2018-07-13T04:06:04.083Z,27.20
2018-07-13T04:08:32.103Z,29.00
2018-07-13T04:10:59.836Z,25.20
2018-07-13T04:13:27.588Z,25.00
2018-07-13T04:15:55.339Z,37.00
2018-07-13T04:18:24.584Z,27.80
2018-07-13T04:20:53.024Z,30.80
2018-07-13T04:23:21.669Z,29.40
2018-07-13T04:25:49.675Z,30.00
2018-07-13T04:28:17.486Z,28.80
2018-07-13T04:30:45.267Z,32.00
2018-07-13T04:33:13.808Z,27.60
2018-07-13T04:35:41.851Z,25.60
2018-07-13T04:38:09.636Z,25.20
2018-07-13T04:40:37.410Z,26.80
2018-07-13T04:43:05.441Z,25.60
2018-07-13T04:45:33.186Z,25.00
2018-07-13T04:48:01.884Z,27.80
2018-07-13T04:50:29.963Z,27.60
2018-07-13T04:52:57.700Z,27.40
2018-07-13T04:55:25.447Z,30.40
2018-07-13T04:57:55.158Z,23.40
2018-07-13T05:00:24.496Z,21.20
2018-07-13T05:02:52.379Z,20.00
2018-07-13T05:05:20.530Z,24.20
2018-07-13T05:07:49.208Z,25.60
2018-07-13T05:10:17.131Z,24.20
2018-07-13T05:12:45.205Z,23.40
2018-07-13T05:15:13.650Z,36.80
2018-07-13T05:17:41.378Z,26.40
2018-07-13T05:20:09.603Z,26.40
2018-07-13T05:22:37.338Z,29.00
2018-07-13T05:25:06.333Z,35.40
2018-07-13T05:27:35.224Z,30.00
2018-07-13T05:30:03.113Z,31.40
2018-07-13T05:32:31.084Z,33.80
2018-07-13T05:35:00.393Z,30.60
2018-07-13T05:37:28.159Z,34.40
2018-07-13T05:39:56.220Z,31.40
2018-07-13T05:42:24.615Z,28.20
2018-07-13T05:44:52.357Z,31.60
2018-07-13T05:47:20.189Z,42.00
2018-07-13T05:49:48.603Z,44.20
2018-07-13T05:52:16.746Z,27.60
2018-07-13T05:54:44.993Z,33.80
2018-07-13T05:57:13.177Z,35.40
2018-07-13T05:59:40.979Z,30.20
2018-07-13T06:02:08.816Z,35.00
2018-07-13T06:04:37.043Z,33.60
2018-07-13T06:07:05.824Z,33.60
2018-07-13T06:09:33.656Z,28.40
2018-07-13T06:12:01.965Z,28.00
2018-07-13T06:14:29.829Z,29.60
2018-07-13T06:16:57.597Z,35.00
2018-07-13T06:19:25.782Z,42.00
2018-07-13T06:21:53.763Z,39.00
2018-07-13T06:24:22.583Z,50.20
2018-07-13T06:26:50.802Z,39.20
2018-07-13T06:29:18.580Z,41.80
2018-07-13T06:31:46.792Z,44.00
2018-07-13T06:34:16.277Z,39.80
2018-07-13T06:36:44.021Z,43.80
2018-07-13T06:39:12.730Z,35.80
2018-07-13T06:41:40.896Z,34.00
2018-07-13T06:44:08.629Z,29.20
2018-07-13T06:46:36.382Z,39.80
2018-07-13T06:49:04.482Z,42.40
2018-07-13T06:51:32.244Z,42.20
2018-07-13T06:54:00.036Z,30.80
2018-07-13T06:56:28.142Z,36.40
2018-07-13T06:58:55.934Z,36.00
2018-07-13T07:01:23.671Z,36.60
2018-07-13T07:03:52.540Z,34.00
2018-07-13T07:06:21.287Z,38.80
2018-07-13T07:08:49.151Z,29.00
2018-07-13T07:11:17.381Z,31.40
2018-07-13T07:13:45.923Z,35.40
2018-07-13T07:16:13.690Z,44.80
2018-07-13T07:18:41.807Z,30.40
2018-07-13T07:21:09.671Z,41.00
2018-07-13T07:23:37.596Z,33.00
2018-07-13T07:26:06.250Z,33.60
2018-07-13T07:28:34.042Z,37.40
2018-07-13T07:31:02.464Z,45.40
2018-07-13T07:33:30.646Z,33.00
2018-07-13T07:35:58.389Z,41.00
2018-07-13T07:38:26.435Z,39.60
2018-07-13T07:40:54.589Z,41.00
2018-07-13T07:43:24.026Z,41.00
2018-07-13T07:45:51.787Z,39.20
2018-07-13T07:48:19.866Z,50.20
2018-07-13T07:50:47.633Z,40.40
2018-07-13T07:53:15.358Z,48.60
2018-07-13T07:55:43.403Z,37.40
2018-07-13T07:58:11.143Z,46.80
2018-07-13T08:00:38.901Z,52.20
2018-07-13T08:03:06.952Z,43.80
2018-07-13T08:05:34.770Z,43.60
2018-07-13T08:08:02.491Z,36.60
2018-07-13T08:10:30.554Z,42.20
2018-07-13T08:12:58.323Z,45.40
2018-07-13T08:15:26.658Z,51.20
2018-07-13T08:17:54.896Z,45.80
2018-07-13T08:20:22.638Z,46.40
2018-07-13T08:22:50.485Z,48.00
2018-07-13T08:25:18.779Z,34.80
2018-07-13T08:27:48.472Z,52.40
2018-07-13T08:30:16.726Z,49.00
2018-07-13T08:32:45.917Z,39.40
2018-07-13T08:35:13.678Z,52.20
2018-07-13T08:37:42.739Z,51.80
2018-07-13T08:40:10.829Z,45.80
2018-07-13T08:42:38.897Z,41.00
2018-07-13T08:45:06.861Z,43.20
2018-07-13T08:47:35.003Z,41.60
2018-07-13T08:50:03.508Z,39.80
2018-07-13T08:52:31.772Z,39.20
2018-07-13T08:54:59.555Z,45.00
2018-07-13T08:57:27.342Z,43.20
2018-07-13T08:59:57.002Z,43.00
2018-07-13T09:02:25.520Z,40.40
2018-07-13T09:04:53.675Z,39.60
2018-07-13T09:07:21.864Z,39.80
2018-07-13T09:09:50.221Z,39.60
2018-07-13T09:12:19.531Z,37.80
2018-07-13T09:14:47.731Z,39.00
2018-07-13T09:17:16.395Z,33.20
2018-07-13T09:19:44.152Z,34.80
2018-07-13T09:22:12.342Z,36.20
2018-07-13T09:24:41.703Z,31.40
2018-07-13T09:27:12.814Z,37.80
2018-07-13T09:29:40.905Z,38.60
2018-07-13T09:32:08.695Z,38.80
2018-07-13T09:34:36.470Z,28.40
2018-07-13T09:37:05.422Z,32.00
2018-07-13T09:39:33.244Z,35.40
2018-07-13T09:42:01.826Z,30.20
2018-07-13T09:44:29.963Z,36.40
2018-07-13T09:46:57.860Z,29.40
2018-07-13T09:49:29.603Z,26.60
2018-07-13T09:51:57.811Z,28.80
2018-07-13T09:54:25.900Z,26.40
2018-07-13T09:56:53.680Z,31.20
2018-07-13T09:59:23.237Z,23.00
2018-07-13T10:01:51.019Z,19.40
2018-07-13T10:04:18.797Z,22.80
2018-07-13T10:06:47.488Z,24.80
2018-07-13T10:11:36.966Z,12.20
2018-07-13T10:14:05.064Z,13.80
2018-07-13T10:16:45.721Z,10.40
2018-07-13T10:19:14.612Z,15.60
2018-07-13T10:21:42.630Z,10.00
2018-07-13T10:24:10.391Z,9.80
2018-07-13T10:26:38.826Z,10.60
2018-07-13T10:29:08.402Z,11.40
2018-07-13T10:31:41.569Z,9.20
2018-07-13T10:34:17.118Z,11.00
2018-07-13T10:36:45.401Z,11.20
2018-07-13T10:39:14.092Z,13.00
2018-07-13T10:41:41.825Z,9.00
2018-07-13T10:44:13.352Z,9.20
2018-07-13T10:46:41.281Z,10.80
2018-07-13T10:49:10.696Z,11.20
2018-07-13T10:51:39.266Z,11.60
2018-07-13T10:54:07.007Z,12.20
2018-07-13T10:56:34.795Z,16.60
2018-07-13T10:59:03.188Z,11.20
2018-07-13T11:01:37.271Z,8.40
2018-07-13T11:04:05.702Z,9.40
2018-07-13T11:06:33.779Z,9.00
2018-07-13T11:09:02.280Z,7.80
2018-07-13T11:11:30.031Z,7.20
2018-07-13T11:13:58.273Z,9.00
2018-07-13T11:16:30.714Z,8.80
2018-07-13T11:18:59.046Z,7.20
2018-07-13T11:21:27.090Z,8.20
2018-07-13T11:23:55.520Z,6.60
2018-07-13T11:26:24.155Z,6.40
2018-07-13T11:28:52.224Z,7.00
2018-07-13T11:31:21.658Z,10.40
2018-07-13T11:33:49.395Z,6.00
2018-07-13T11:36:17.445Z,6.80
2018-07-13T11:38:45.270Z,7.40
2018-07-13T11:41:13.023Z,6.80
2018-07-13T11:43:41.063Z,6.40
2018-07-13T11:46:08.810Z,6.00
2018-07-13T11:48:36.811Z,6.60
2018-07-13T11:51:04.873Z,6.60
2018-07-13T11:53:32.595Z,9.00
2018-07-13T11:56:02.249Z,8.60
2018-07-13T11:58:31.661Z,8.00
2018-07-13T12:00:59.768Z,6.20
2018-07-13T12:03:28.434Z,6.00
2018-07-13T12:05:56.510Z,7.00
2018-07-13T12:08:25.391Z,5.00
2018-07-13T12:10:53.595Z,5.80
2018-07-13T12:13:22.555Z,7.40
2018-07-13T12:15:52.593Z,8.00
2018-07-13T12:18:20.504Z,7.20
2018-07-13T12:20:49.546Z,8.00
2018-07-13T12:23:18.891Z,6.00
2018-07-13T12:25:46.640Z,6.60
2018-07-13T12:28:19.558Z,6.80
2018-07-13T12:30:53.300Z,8.60
2018-07-13T12:33:22.818Z,6.20
2018-07-13T12:35:54.235Z,7.20
2018-07-13T12:38:23.377Z,6.40
2018-07-13T12:43:30.375Z,8.60
2018-07-13T12:45:59.871Z,8.40
2018-07-13T12:48:35.573Z,9.40
2018-07-13T12:51:05.468Z,8.20
2018-07-13T12:53:34.503Z,6.00
2018-07-13T12:56:03.391Z,8.00
2018-07-13T12:58:31.505Z,7.20
2018-07-13T13:01:00.810Z,7.60
2018-07-13T13:03:28.551Z,6.80
2018-07-13T13:05:58.108Z,8.00
2018-07-13T13:08:27.330Z,7.00
2018-07-13T13:10:56.300Z,7.20
2018-07-13T13:13:25.441Z,8.00
2018-07-13T13:15:56.895Z,9.00
2018-07-13T13:18:24.671Z,9.00
2018-07-13T13:20:54.248Z,7.00
2018-07-13T13:23:24.488Z,8.40
2018-07-13T13:25:59.743Z,8.60
2018-07-13T13:28:29.175Z,8.60
2018-07-13T13:31:06.285Z,9.00
2018-07-13T13:33:37.706Z,8.80
2018-07-13T13:36:06.444Z,8.40
2018-07-13T13:38:34.220Z,7.20
2018-07-13T13:41:03.508Z,7.00
2018-07-13T13:43:31.362Z,8.20
2018-07-13T13:45:59.471Z,4.00
2018-07-13T13:48:28.232Z,6.80
2018-07-13T13:50:56.000Z,10.20
2018-07-13T13:53:24.717Z,7.00
2018-07-13T13:55:53.216Z,8.00
2018-07-13T13:58:22.607Z,8.40
2018-07-13T14:00:50.764Z,10.00
2018-07-13T14:03:18.511Z,8.80
2018-07-13T14:05:47.025Z,9.00
2018-07-13T14:08:16.483Z,8.80
2018-07-13T14:10:45.476Z,8.80
2018-07-13T14:13:14.791Z,8.60
2018-07-13T14:15:44.447Z,11.40
2018-07-13T14:18:13.030Z,12.20
2018-07-13T14:20:41.622Z,10.60
2018-07-13T14:23:10.427Z,8.60
2018-07-13T14:25:38.999Z,11.20
2018-07-13T14:28:06.772Z,11.60
2018-07-13T14:30:35.840Z,12.00
2018-07-13T14:33:03.648Z,12.20
2018-07-13T14:35:31.610Z,9.80
2018-07-13T14:38:00.692Z,11.40
2018-07-13T14:40:29.242Z,9.60
2018-07-13T14:42:57.873Z,11.40
2018-07-13T14:45:29.237Z,11.80
2018-07-13T14:47:57.671Z,11.00
2018-07-13T14:50:25.445Z,9.00
2018-07-13T14:52:58.344Z,9.40
2018-07-13T14:55:26.317Z,11.20
2018-07-13T14:57:55.633Z,10.00
2018-07-13T15:00:24.755Z,11.60
2018-07-13T15:02:53.466Z,10.60
2018-07-13T15:05:21.960Z,10.80
2018-07-13T15:07:50.067Z,9.80
2018-07-13T15:10:17.923Z,10.80
2018-07-13T15:12:45.869Z,11.00
2018-07-13T15:15:15.300Z,12.00
2018-07-13T15:17:44.129Z,10.00
2018-07-13T15:20:13.411Z,10.20
2018-07-13T15:22:43.268Z,10.00
2018-07-13T15:25:12.562Z,10.80
2018-07-13T15:27:40.438Z,11.80
2018-07-13T15:30:08.628Z,8.60
2018-07-13T15:32:37.037Z,10.80
2018-07-13T15:35:05.398Z,11.20
2018-07-13T15:37:35.439Z,10.20
2018-07-13T15:40:04.092Z,13.00
2018-07-13T15:42:32.808Z,13.00
2018-07-13T15:45:00.979Z,10.20
2018-07-13T15:47:29.867Z,9.00
2018-07-13T15:49:59.664Z,11.40
2018-07-13T15:52:29.274Z,12.60
2018-07-13T15:54:59.110Z,10.00
2018-07-13T15:57:26.910Z,12.00
2018-07-13T15:59:55.200Z,11.40
2018-07-13T16:02:23.012Z,9.00
2018-07-13T16:04:50.830Z,11.00
2018-07-13T16:07:20.167Z,9.00
2018-07-13T16:09:47.956Z,9.20
2018-07-13T16:12:15.713Z,9.00
2018-07-13T16:14:46.780Z,8.80
2018-07-13T16:17:14.519Z,9.00
2018-07-13T16:19:42.248Z,10.00
2018-07-13T16:22:10.294Z,10.80
2018-07-13T16:24:38.031Z,11.00
2018-07-13T16:27:06.266Z,10.00
2018-07-13T16:29:35.316Z,10.80
2018-07-13T16:32:03.054Z,10.60
2018-07-13T16:34:30.973Z,11.00
2018-07-13T16:37:01.490Z,9.40
2018-07-13T16:39:30.868Z,10.00
2018-07-13T16:41:58.645Z,9.80
2018-07-13T16:44:29.031Z,9.20
2018-07-13T16:46:56.827Z,10.60
2018-07-13T16:49:25.043Z,8.20
2018-07-13T16:51:53.115Z,11.60
2018-07-13T17:02:20.816Z,8.60
2018-07-13T17:04:48.626Z,9.60
2018-07-13T17:09:07.140Z,11.40
2018-07-13T17:11:35.811Z,11.20
2018-07-13T17:14:04.726Z,8.20
2018-07-13T17:16:33.534Z,13.00
2018-07-13T17:19:01.235Z,9.00
2018-07-13T17:21:31.280Z,9.40
2018-07-13T17:23:59.950Z,10.20
2018-07-13T17:26:27.679Z,10.00
2018-07-13T17:28:55.690Z,9.40
2018-07-13T17:31:23.370Z,13.20
2018-07-13T17:33:51.061Z,11.00
2018-07-13T17:36:19.636Z,12.00
2018-07-13T17:38:47.317Z,11.60
2018-07-13T17:41:15.057Z,11.20
2018-07-13T17:43:43.105Z,11.20
2018-07-13T17:46:10.814Z,10.80
2018-07-13T17:48:39.318Z,13.60
2018-07-13T17:51:07.492Z,11.00
2018-07-13T17:53:35.240Z,10.00
2018-07-13T17:56:03.567Z,9.80
2018-07-13T17:58:31.586Z,11.00
2018-07-13T18:00:59.384Z,11.60
2018-07-13T18:03:27.138Z,11.00
2018-07-13T18:05:55.126Z,9.40
2018-07-13T18:08:22.865Z,12.20
2018-07-13T18:10:50.987Z,10.00
2018-07-13T18:13:18.996Z,9.60
2018-07-13T18:15:46.706Z,10.40
2018-07-13T18:18:14.390Z,9.80
2018-07-13T18:20:42.442Z,10.40
2018-07-13T18:23:10.175Z,10.00
2018-07-13T18:25:37.891Z,10.20
2018-07-13T18:28:07.673Z,9.00
2018-07-13T18:30:35.410Z,9.20
2018-07-13T18:33:03.161Z,8.20
2018-07-13T18:35:35.323Z,10.00
2018-07-13T18:38:04.287Z,10.20
2018-07-13T18:40:33.899Z,10.00
2018-07-13T18:43:02.218Z,10.00
2018-07-13T18:45:31.834Z,10.00
2018-07-13T18:48:03.552Z,10.00
2018-07-13T18:50:33.208Z,10.40
2018-07-13T18:53:00.963Z,10.40
2018-07-13T18:55:29.129Z,11.00
2018-07-13T18:57:57.670Z,9.20
2018-07-13T19:00:27.810Z,10.60
2018-07-13T19:02:57.942Z,12.80
2018-07-13T19:05:26.480Z,10.80
2018-07-13T19:07:54.565Z,12.80
2018-07-13T19:10:24.103Z,14.20
2018-07-13T19:15:27.957Z,13.80
2018-07-13T19:17:55.893Z,11.20
2018-07-13T19:20:23.659Z,12.80
2018-07-13T19:22:51.839Z,13.40
2018-07-13T19:25:21.221Z,13.40
2018-07-13T19:27:53.582Z,11.40
2018-07-13T19:30:22.324Z,15.20
2018-07-13T19:32:50.788Z,11.00
2018-07-13T19:35:23.134Z,10.20
2018-07-13T19:37:52.550Z,11.00
2018-07-13T19:40:20.475Z,10.40
2018-07-13T19:42:51.707Z,11.20
2018-07-13T19:45:20.694Z,12.80
2018-07-13T19:47:51.042Z,14.40
2018-07-13T19:50:20.418Z,12.00
2018-07-13T19:52:52.988Z,13.00
2018-07-13T19:55:20.957Z,13.60
2018-07-13T19:57:50.133Z,12.60
2018-07-13T20:00:18.335Z,12.60
2018-07-13T20:02:46.111Z,14.00
2018-07-13T20:05:16.591Z,11.40
2018-07-13T20:07:46.401Z,13.80
2018-07-13T20:10:14.397Z,10.00
2018-07-13T20:13:50.032Z,12.20
2018-07-13T20:16:22.492Z,13.20
2018-07-13T20:18:51.394Z,16.20
2018-07-13T20:21:20.718Z,18.00
2018-07-13T20:23:51.310Z,21.20
2018-07-13T20:26:22.374Z,25.80
2018-07-13T20:28:55.745Z,24.60
2018-07-13T20:31:25.788Z,19.60
2018-07-13T20:33:54.693Z,22.60
2018-07-13T20:36:23.956Z,23.00
2018-07-13T20:38:53.377Z,17.40
2018-07-13T20:41:21.775Z,20.80
2018-07-13T20:43:54.576Z,18.00
2018-07-13T20:46:22.663Z,17.00
2018-07-13T20:48:50.360Z,13.00
2018-07-13T20:51:18.953Z,18.40
2018-07-13T20:53:47.655Z,14.40
2018-07-13T20:56:16.387Z,19.00
2018-07-13T20:58:44.487Z,17.60
2018-07-13T21:01:12.259Z,20.00
2018-07-13T21:03:40.000Z,17.00
2018-07-13T21:06:10.232Z,15.60
2018-07-13T21:08:40.380Z,15.40
2018-07-13T21:11:10.253Z,17.60
2018-07-13T21:13:41.119Z,14.40
2018-07-13T21:16:11.230Z,12.20
2018-07-13T21:18:38.911Z,5.80
2018-07-13T21:21:06.950Z,14.20
2018-07-13T21:23:34.678Z,16.20
2018-07-13T21:26:05.454Z,15.80
2018-07-13T21:28:33.831Z,14.80
2018-07-13T21:31:01.687Z,15.40
2018-07-13T21:33:30.057Z,18.40
2018-07-13T21:35:58.690Z,17.00
2018-07-13T21:38:26.380Z,14.40
2018-07-13T21:40:55.618Z,11.00
2018-07-13T21:43:25.250Z,14.20
2018-07-13T21:45:54.632Z,17.00
2018-07-13T21:48:24.192Z,13.20
2018-07-13T21:50:53.236Z,15.00
2018-07-13T21:53:22.001Z,13.00
2018-07-13T21:58:25.535Z,13.00
2018-07-13T22:00:54.319Z,15.80
2018-07-13T22:03:22.687Z,15.80
2018-07-13T22:05:50.655Z,16.20
2018-07-13T22:08:18.386Z,17.80
2018-07-13T22:10:46.102Z,16.40
2018-07-13T22:13:14.138Z,20.80
2018-07-13T22:15:43.230Z,17.80
2018-07-13T22:18:11.586Z,17.40
2018-07-13T22:20:40.010Z,16.00
2018-07-13T22:23:08.286Z,17.60
2018-07-13T22:25:36.029Z,17.60
2018-07-13T22:28:04.022Z,17.80
2018-07-13T22:30:32.556Z,21.60
2018-07-13T22:33:01.247Z,15.00
2018-07-13T22:35:29.241Z,16.80
2018-07-13T22:37:56.954Z,14.00
2018-07-13T22:40:24.686Z,20.60
2018-07-13T22:42:52.481Z,17.40
2018-07-13T22:45:20.846Z,17.80
2018-07-13T22:47:48.844Z,20.80
2018-07-13T22:50:17.514Z,17.40
2018-07-13T22:52:45.941Z,17.40
2018-07-13T22:55:14.027Z,16.80
2018-07-13T22:57:41.691Z,23.40
2018-07-13T23:00:11.470Z,18.00
2018-07-13T23:02:39.484Z,19.00
2018-07-13T23:05:08.200Z,20.20
2018-07-13T23:07:36.489Z,20.40
2018-07-13T23:10:04.517Z,18.80
2018-07-13T23:12:32.229Z,18.20
2018-07-13T23:14:59.914Z,18.00
2018-07-13T23:17:27.900Z,17.60
2018-07-13T23:19:55.603Z,17.60
2018-07-13T23:22:23.287Z,18.60
2018-07-13T23:24:51.301Z,21.00
2018-07-13T23:27:19.525Z,20.40
2018-07-13T23:29:47.249Z,19.00
2018-07-13T23:32:15.246Z,21.20
2018-07-13T23:34:43.913Z,23.60
2018-07-13T23:37:11.641Z,18.60
2018-07-13T23:39:40.529Z,19.00
2018-07-13T23:42:08.217Z,21.80
2018-07-13T23:44:35.924Z,17.20
2018-07-13T23:47:03.952Z,20.20
2018-07-13T23:49:32.218Z,21.60
2018-07-13T23:51:59.910Z,20.40
2018-07-13T23:54:27.915Z,21.20
2018-07-13T23:56:55.582Z,19.80
2018-07-13T23:59:23.290Z,18.20
